map of YRT home
YRT - Airport
Location
City:  Rankin Inlet, Nunavut, Canada
Name:Rankin Inlet Airport
ICAO:CYRT
IATA:YRT

Details
Type:Airport (Airfield)
Use:Public/Civil
Latitude:6248'38"N (62.810556)
Longitude:9206'53"W (-92.114721)
Elevation:106 ft (32 m)
Variation:6.31W (WMM2015v2 magnetic declination)
0.21 annual change
Runways:1
Longest:6000 ft (1829 m), paved

Time
Time Zone:UTC-6 (DST-5)
Local Time:

Weather
METAR:CYRT 041400Z 34023KT 1/2SM IC BLSN BKN040 M33/M37 A2998 RMK BLSN4SC1 SLP161
TAF:CYRT 041138Z 0412/0424 34020KT 1/2SM IC BLSN VV005
TEMPO 0412/0424 11/2SM IC BLSN FEW005 BKN250
RMK NXT FCST BY 041800Z

Related Locations
Nearby:
Farthest:YWKS: 11690 mi / 18814 km
Wilkins Runway (Casey), Upper Peterson Glacier, AQ

Find:

   beyond  
but within

Other Information
Maps:
NOTAMs:
Links:
Sources:

  
  • flag of Canada
  • flag of Nunavut
  

Airport Diagram

Airport diagram for YRT

Airport diagram PDF

Sectional Chart

Flight Planning
at skyvector.com

Satellite Image

Google Maps Satellite view

 

Copyright © 2004-2019 Karl L. Swartz. All rights reserved.
The Great Circle Mapper name and logo are trademarks of the Great Circle Mapper.
All other trademarks mentioned herein belong to their respective owners.
Please see credits for attibutions and further copyright information.

  Follow gcmap on Facebook Follow gcmap on Twitter GCmap on LinkedIn

hCard Microformat

Geo Microformat